Terminal Aerodrome Forecast
Issued by NWS

Home | Current Version | Previous Version | Text Only | Print | Product List | Glossary On
Versions: 1 2 3 4 5 6 7 8 9 10 11 12 13 14 15 16 17 18 19 20 21 22 23 24 25 26 27
218
FTUS43 KGRB 300527
TAFMTW
TAF
KMTW 300527Z 3006/3106 04008KT 6SM -RASN SCT020 BKN035
      TEMPO 3008/3012 2SM -RASN BKN020
     FM301200 07012G19KT 2SM -RASN BKN010
     FM301600 08013G20KT 3SM -RA OVC005
     FM310100 03015G23KT 3SM -SN BR OVC010=

USA.gov is the U.S. government's official web portal to all federal, state and local government web resources and services.